Terminal Aerodrome Forecast
Issued by NWS Tulsa, OK

Home | Current Version | Previous Version | Text Only | Print | Product List | Glossary On
Versions: 1 2 3 4 5 6 7 8 9 10 11 12 13 14 15 16 17
437
FTUS44 KTSA 291720
TAFTUL
TAF
KTUL 291720Z 2918/3018 04003KT P6SM SCT120 OVC200
     FM300200 10005KT P6SM SCT050 BKN250 PROB30 3006/3012 5SM -TSRA
      BKN050CB
     FM301200 15005KT P6SM BKN050 PROB30 3012/3018 5SM -TSRA
      BKN025CB=

USA.gov is the U.S. government's official web portal to all federal, state and local government web resources and services.